createdAt,value
2023-05-03T00:00:27.311Z,25.16
2023-05-03T00:01:27.315Z,28.58
2023-05-03T00:02:27.398Z,29.11
2023-05-03T00:03:27.341Z,28.98
2023-05-03T00:04:27.351Z,28.10
2023-05-03T00:05:27.383Z,27.10
2023-05-03T00:06:27.436Z,26.61
2023-05-03T00:07:27.385Z,29.27
2023-05-03T00:08:27.393Z,26.23
2023-05-03T00:09:27.421Z,26.90
2023-05-03T00:10:27.429Z,28.29
2023-05-03T00:11:27.456Z,28.06
2023-05-03T00:12:27.458Z,30.57
2023-05-03T00:13:27.466Z,27.06
2023-05-03T00:14:27.476Z,27.63
2023-05-03T00:15:27.497Z,25.88
2023-05-03T00:16:27.514Z,27.88
2023-05-03T00:17:27.562Z,29.21
2023-05-03T00:18:27.527Z,28.43
2023-05-03T00:19:31.401Z,29.85
2023-05-03T00:20:27.547Z,29.91
2023-05-03T00:21:27.518Z,29.96
2023-05-03T00:22:27.530Z,30.11
2023-05-03T00:23:27.512Z,30.43
2023-05-03T00:24:27.503Z,30.14
2023-05-03T00:25:27.521Z,27.95
2023-05-03T00:26:27.514Z,27.25
2023-05-03T00:27:27.471Z,27.15
2023-05-03T00:28:27.453Z,29.47
2023-05-03T00:29:27.474Z,29.05
2023-05-03T00:30:27.454Z,25.00
2023-05-03T00:31:27.446Z,28.25
2023-05-03T00:32:27.432Z,28.08
2023-05-03T00:33:27.398Z,30.34
2023-05-03T00:34:27.396Z,27.53
2023-05-03T00:35:27.379Z,30.33
2023-05-03T00:36:27.360Z,31.69
2023-05-03T00:37:27.364Z,28.97
2023-05-03T00:38:27.344Z,26.99
2023-05-03T00:39:27.339Z,29.34
2023-05-03T00:40:27.385Z,27.01
2023-05-03T00:41:27.321Z,28.45
2023-05-03T00:42:27.313Z,27.11
2023-05-03T00:43:27.310Z,29.39
2023-05-03T00:44:27.281Z,25.00
2023-05-03T00:45:27.298Z,29.20
2023-05-03T00:46:27.276Z,27.39
2023-05-03T00:47:27.307Z,27.22
2023-05-03T00:48:27.248Z,25.09
2023-05-03T00:49:27.243Z,25.19
2023-05-03T00:50:27.255Z,26.85
2023-05-03T00:51:27.236Z,26.98
2023-05-03T00:52:27.231Z,27.66
2023-05-03T00:53:27.222Z,28.17
2023-05-03T00:54:27.203Z,28.15
2023-05-03T00:55:27.209Z,29.36
2023-05-03T00:56:28.305Z,31.15
2023-05-03T00:57:27.187Z,29.98
2023-05-03T00:58:27.180Z,30.19
2023-05-03T00:59:27.166Z,30.34
2023-05-03T01:00:27.166Z,29.61
2023-05-03T01:01:27.183Z,27.96
2023-05-03T01:02:27.203Z,30.03
2023-05-03T01:03:27.251Z,30.67
2023-05-03T01:04:27.137Z,26.26
2023-05-03T01:05:27.125Z,31.24
2023-05-03T01:06:27.230Z,31.41
2023-05-03T01:07:27.116Z,31.43
2023-05-03T01:08:27.119Z,28.75
2023-05-03T01:09:27.098Z,28.10
2023-05-03T01:10:27.106Z,29.21
2023-05-03T01:11:27.093Z,25.61
2023-05-03T01:12:27.073Z,29.66
2023-05-03T01:13:27.068Z,27.93
2023-05-03T01:14:27.046Z,28.15
2023-05-03T01:15:27.044Z,29.10
2023-05-03T01:16:27.116Z,26.95
2023-05-03T01:17:27.105Z,29.09
2023-05-03T01:18:27.017Z,30.71
2023-05-03T01:19:27.005Z,27.88
2023-05-03T01:20:26.985Z,26.66
2023-05-03T01:21:26.984Z,28.30
2023-05-03T01:22:26.963Z,30.14
2023-05-03T01:23:26.960Z,27.28
2023-05-03T01:24:26.952Z,28.88
2023-05-03T01:25:26.942Z,29.13
2023-05-03T01:26:26.926Z,28.74
2023-05-03T01:27:26.917Z,27.69
2023-05-03T01:28:26.902Z,28.30
2023-05-03T01:29:26.921Z,29.20
2023-05-03T01:30:26.907Z,25.31
2023-05-03T01:31:26.961Z,27.20
2023-05-03T01:32:26.928Z,30.22
2023-05-03T01:33:26.867Z,28.22
2023-05-03T01:34:26.874Z,28.90
2023-05-03T01:35:26.899Z,27.47
2023-05-03T01:36:26.915Z,29.37
2023-05-03T01:37:26.910Z,31.80
2023-05-03T01:38:26.934Z,28.93
2023-05-03T01:39:26.951Z,28.39
2023-05-03T01:40:26.954Z,28.95
2023-05-03T01:41:26.970Z,27.88
2023-05-03T01:42:26.968Z,28.41
2023-05-03T01:43:26.989Z,28.17
2023-05-03T01:44:26.995Z,30.72
2023-05-03T01:45:27.006Z,28.84
2023-05-03T01:46:27.083Z,29.35
2023-05-03T01:47:27.048Z,28.31
2023-05-03T01:48:27.049Z,29.72
2023-05-03T01:49:27.068Z,25.87
2023-05-03T01:50:27.064Z,27.61
2023-05-03T01:51:27.087Z,28.94
2023-05-03T01:52:27.099Z,29.88
2023-05-03T01:53:27.109Z,29.54
2023-05-03T01:54:27.128Z,27.69
2023-05-03T01:55:27.138Z,28.15
2023-05-03T01:56:27.158Z,27.87
2023-05-03T01:57:27.181Z,30.15
2023-05-03T01:58:27.185Z,31.12
2023-05-03T01:59:27.209Z,31.70
2023-05-03T02:00:27.210Z,29.50
2023-05-03T02:01:27.268Z,31.77
2023-05-03T02:02:27.258Z,27.59
2023-05-03T02:03:27.259Z,28.17
2023-05-03T02:04:27.356Z,29.77
2023-05-03T02:05:27.309Z,28.27
2023-05-03T02:06:27.363Z,27.25
2023-05-03T02:07:27.329Z,29.15
2023-05-03T02:08:27.337Z,28.78
2023-05-03T02:09:27.360Z,26.94
2023-05-03T02:10:27.374Z,29.18
2023-05-03T02:11:27.382Z,29.38
2023-05-03T02:12:27.360Z,29.25
2023-05-03T02:13:27.353Z,29.57
2023-05-03T02:14:27.349Z,28.41
2023-05-03T02:15:27.352Z,28.12
2023-05-03T02:16:27.368Z,27.77
2023-05-03T02:17:27.338Z,27.30
2023-05-03T02:18:27.336Z,30.00
2023-05-03T02:19:27.311Z,27.89
2023-05-03T02:20:27.297Z,28.02
2023-05-03T02:21:27.293Z,28.43
2023-05-03T02:22:27.283Z,31.52
2023-05-03T02:23:27.263Z,31.61
2023-05-03T02:24:27.270Z,30.25
2023-05-03T02:25:27.812Z,32.27
2023-05-03T02:26:27.279Z,31.94
2023-05-03T02:27:27.243Z,31.29
2023-05-03T02:28:27.224Z,27.06
2023-05-03T02:29:27.212Z,29.90
2023-05-03T02:30:27.214Z,28.63
2023-05-03T02:31:27.305Z,28.11
2023-05-03T02:32:27.214Z,28.82
2023-05-03T02:33:27.186Z,27.31
2023-05-03T02:34:27.194Z,26.04
2023-05-03T02:35:27.164Z,27.49
2023-05-03T02:36:27.183Z,27.20
2023-05-03T02:37:27.179Z,27.44
2023-05-03T02:38:27.174Z,29.13
2023-05-03T02:39:27.106Z,28.58
2023-05-03T02:40:27.110Z,29.65
2023-05-03T02:41:27.095Z,29.21
2023-05-03T02:42:27.101Z,28.72
2023-05-03T02:43:27.085Z,27.06
2023-05-03T02:44:27.081Z,28.21
2023-05-03T02:45:27.079Z,26.75
2023-05-03T02:46:27.170Z,26.91
2023-05-03T02:47:27.092Z,27.20
2023-05-03T02:48:27.020Z,27.98
2023-05-03T02:49:27.016Z,27.00
2023-05-03T02:50:27.009Z,26.72
2023-05-03T02:51:27.006Z,26.98
2023-05-03T02:52:26.992Z,27.49
2023-05-03T02:53:26.973Z,27.14
2023-05-03T02:54:26.962Z,27.63
2023-05-03T02:55:26.954Z,27.16
2023-05-03T02:56:27.011Z,27.88
2023-05-03T02:57:26.931Z,30.20
2023-05-03T02:58:26.924Z,28.62
2023-05-03T02:59:26.902Z,30.11
2023-05-03T03:00:26.896Z,30.22
2023-05-03T03:01:26.908Z,28.99
2023-05-03T03:02:26.929Z,27.82
2023-05-03T03:03:26.946Z,26.32
2023-05-03T03:04:26.849Z,29.09
2023-05-03T03:05:26.843Z,27.29
2023-05-03T03:06:26.920Z,27.47
2023-05-03T03:07:26.818Z,27.62
2023-05-03T03:08:26.836Z,28.12
2023-05-03T03:09:26.794Z,27.88
2023-05-03T03:10:26.782Z,27.98
2023-05-03T03:11:26.784Z,26.30
2023-05-03T03:12:26.778Z,29.06
2023-05-03T03:13:26.772Z,25.88
2023-05-03T03:14:26.769Z,25.72
2023-05-03T03:15:26.772Z,25.16
2023-05-03T03:16:26.804Z,27.11
2023-05-03T03:17:26.798Z,25.48
2023-05-03T03:18:26.745Z,27.72
2023-05-03T03:19:26.731Z,27.97
2023-05-03T03:20:26.748Z,25.56
2023-05-03T03:21:26.725Z,28.71
2023-05-03T03:22:26.715Z,30.60
2023-05-03T03:23:26.705Z,28.81
2023-05-03T03:24:26.689Z,28.50
2023-05-03T03:25:26.673Z,28.96
2023-05-03T03:26:26.677Z,31.56
2023-05-03T03:27:26.667Z,25.79
2023-05-03T03:28:26.672Z,26.01
2023-05-03T03:29:26.638Z,26.54
2023-05-03T03:30:26.640Z,27.33
2023-05-03T03:31:26.724Z,27.94
2023-05-03T03:32:26.613Z,29.60
2023-05-03T03:33:26.717Z,28.39
2023-05-03T03:34:26.622Z,28.58
2023-05-03T03:35:26.588Z,27.95
2023-05-03T03:36:26.586Z,27.02
2023-05-03T03:37:26.568Z,25.47
2023-05-03T03:38:26.556Z,25.65
2023-05-03T03:39:26.549Z,26.32
2023-05-03T03:40:26.546Z,27.53
2023-05-03T03:41:26.565Z,29.44
2023-05-03T03:42:26.531Z,26.24
2023-05-03T03:43:26.529Z,28.67
2023-05-03T03:44:26.527Z,28.01
2023-05-03T03:45:26.519Z,28.17
2023-05-03T03:46:26.627Z,28.18
2023-05-03T03:47:26.627Z,28.29
2023-05-03T03:48:26.509Z,29.21
2023-05-03T03:49:26.506Z,29.66
2023-05-03T03:50:26.548Z,28.91
2023-05-03T03:51:26.506Z,29.68
2023-05-03T03:52:26.526Z,27.37
2023-05-03T03:53:26.500Z,25.00
2023-05-03T03:54:26.490Z,30.71
2023-05-03T03:55:26.484Z,28.94
2023-05-03T03:56:26.481Z,27.56
2023-05-03T03:57:26.484Z,30.07
2023-05-03T03:58:26.482Z,30.15
2023-05-03T03:59:26.479Z,30.31
2023-05-03T04:00:26.457Z,29.02
2023-05-03T04:01:26.470Z,28.40
2023-05-03T04:02:26.528Z,29.74
2023-05-03T04:03:26.578Z,28.09
2023-05-03T04:04:26.527Z,30.31
2023-05-03T04:05:26.527Z,32.68
2023-05-03T04:06:26.593Z,31.06
2023-05-03T04:07:26.565Z,30.17
2023-05-03T04:08:26.592Z,31.98
2023-05-03T04:09:26.604Z,28.64
2023-05-03T04:10:26.638Z,29.58
2023-05-03T04:11:26.653Z,29.81
2023-05-03T04:12:26.677Z,30.42
2023-05-03T04:13:26.710Z,30.30
2023-05-03T04:14:26.721Z,29.47
2023-05-03T04:15:26.751Z,31.65
2023-05-03T04:16:26.768Z,27.92
2023-05-03T04:17:26.813Z,29.81
2023-05-03T04:18:26.834Z,27.98
2023-05-03T04:19:26.790Z,28.17
2023-05-03T04:20:26.785Z,28.64
2023-05-03T04:21:26.770Z,28.12
2023-05-03T04:22:26.773Z,28.25
2023-05-03T04:23:26.784Z,28.71
2023-05-03T04:24:26.761Z,29.81
2023-05-03T04:25:26.734Z,31.82
2023-05-03T04:26:31.854Z,31.07
2023-05-03T04:27:27.743Z,28.29
2023-05-03T04:28:26.732Z,29.04
2023-05-03T04:29:26.713Z,28.32
2023-05-03T04:30:26.707Z,29.16
2023-05-03T04:31:26.789Z,30.71
2023-05-03T04:32:26.715Z,30.18
2023-05-03T04:33:26.665Z,33.40
2023-05-03T04:34:26.646Z,33.84
2023-05-03T04:35:26.638Z,31.63
2023-05-03T04:36:26.688Z,30.78
2023-05-03T04:37:26.616Z,29.74
2023-05-03T04:38:26.619Z,31.14
2023-05-03T04:39:26.627Z,30.53
2023-05-03T04:40:26.587Z,27.37
2023-05-03T04:41:26.607Z,30.99
2023-05-03T04:42:26.637Z,31.26
2023-05-03T04:43:26.564Z,29.23
2023-05-03T04:44:26.553Z,28.76
2023-05-03T04:45:26.553Z,32.38
2023-05-03T04:46:26.637Z,28.53
2023-05-03T04:47:26.599Z,29.48
2023-05-03T04:48:26.529Z,27.78
2023-05-03T04:49:26.535Z,31.16
2023-05-03T04:50:26.560Z,27.95
2023-05-03T04:51:26.548Z,28.12
2023-05-03T04:52:26.532Z,29.06
2023-05-03T04:53:26.524Z,29.35
2023-05-03T04:54:26.515Z,28.90
2023-05-03T04:55:26.511Z,30.87
2023-05-03T04:56:26.577Z,30.98
2023-05-03T04:57:26.504Z,30.28
2023-05-03T04:58:26.476Z,33.08
2023-05-03T04:59:26.476Z,30.42
2023-05-03T05:00:26.463Z,30.93
2023-05-03T05:01:26.528Z,31.32
2023-05-03T05:02:26.488Z,31.45
2023-05-03T05:03:26.482Z,28.44
2023-05-03T05:04:26.426Z,32.45
2023-05-03T05:05:26.405Z,31.32
2023-05-03T05:06:26.463Z,31.52
2023-05-03T05:07:26.403Z,31.96
2023-05-03T05:08:26.383Z,30.51
2023-05-03T05:09:26.359Z,32.19
2023-05-03T05:10:26.362Z,31.63
2023-05-03T05:11:26.381Z,31.15
2023-05-03T05:12:26.389Z,28.22
2023-05-03T05:13:26.331Z,31.02
2023-05-03T05:14:26.306Z,30.21
2023-05-03T05:15:26.295Z,30.25
2023-05-03T05:16:26.352Z,30.65
2023-05-03T05:17:26.338Z,29.94
2023-05-03T05:18:26.296Z,26.61
2023-05-03T05:19:26.266Z,30.00
2023-05-03T05:20:26.239Z,30.13
2023-05-03T05:21:26.240Z,31.06
2023-05-03T05:22:26.225Z,31.17
2023-05-03T05:23:26.202Z,29.64
2023-05-03T05:24:26.260Z,29.25
2023-05-03T05:25:26.178Z,29.75
2023-05-03T05:26:26.183Z,30.79
2023-05-03T05:27:27.042Z,29.59
2023-05-03T05:28:26.161Z,26.65
2023-05-03T05:29:26.140Z,27.25
2023-05-03T05:30:26.174Z,28.12
2023-05-03T05:31:26.131Z,27.01
2023-05-03T05:32:26.217Z,26.75
2023-05-03T05:33:26.184Z,27.26
2023-05-03T05:34:26.102Z,30.33
2023-05-03T05:35:26.158Z,39.02
2023-05-03T05:36:26.101Z,35.52
2023-05-03T05:37:26.118Z,42.67
2023-05-03T05:38:26.096Z,48.53
2023-05-03T05:39:26.145Z,55.48
2023-05-03T05:40:26.063Z,56.37
2023-05-03T05:41:26.061Z,64.01
2023-05-03T05:42:26.034Z,64.22
2023-05-03T05:43:26.029Z,66.04
2023-05-03T05:44:25.994Z,70.99
2023-05-03T05:45:25.973Z,65.02
2023-05-03T05:46:26.047Z,69.95
2023-05-03T05:47:26.318Z,78.37
2023-05-03T05:48:26.126Z,96.77
2023-05-03T05:49:25.911Z,121.80
2023-05-03T05:50:25.911Z,66.46
2023-05-03T05:51:25.947Z,77.27
2023-05-03T05:52:25.881Z,98.61
2023-05-03T05:53:25.845Z,130.71
2023-05-03T05:54:26.091Z,177.99
2023-05-03T05:55:25.821Z,191.83
2023-05-03T05:56:25.818Z,202.34
2023-05-03T05:57:25.867Z,210.81
2023-05-03T05:58:25.790Z,220.53
2023-05-03T05:59:25.870Z,229.72
2023-05-03T06:00:25.961Z,244.37
2023-05-03T06:01:26.832Z,250.00
2023-05-03T06:02:25.935Z,250.00
2023-05-03T06:03:25.989Z,249.71
2023-05-03T06:04:25.906Z,249.21
2023-05-03T06:05:25.986Z,249.70
2023-05-03T06:06:26.767Z,250.07
2023-05-03T06:07:25.980Z,252.07
2023-05-03T06:08:25.909Z,257.53
2023-05-03T06:09:25.909Z,268.24
2023-05-03T06:10:25.923Z,279.86
2023-05-03T06:11:26.029Z,263.18
2023-05-03T06:12:25.886Z,249.82
2023-05-03T06:13:25.919Z,249.80
2023-05-03T06:14:25.804Z,249.65
2023-05-03T06:15:25.937Z,250.00
2023-05-03T06:16:25.900Z,250.04
2023-05-03T06:17:26.179Z,249.26
2023-05-03T06:18:25.933Z,250.00
2023-05-03T06:19:26.690Z,250.00
2023-05-03T06:20:26.034Z,249.36
2023-05-03T06:21:26.072Z,248.80
2023-05-03T06:22:26.097Z,250.00
2023-05-03T06:23:26.268Z,249.57
2023-05-03T06:24:26.107Z,249.86
2023-05-03T06:25:26.102Z,251.31
2023-05-03T06:26:26.148Z,255.59
2023-05-03T06:27:26.091Z,261.99
2023-05-03T06:28:26.050Z,278.60
2023-05-03T06:29:26.013Z,266.37
2023-05-03T06:30:26.007Z,248.61
2023-05-03T06:31:26.044Z,246.90
2023-05-03T06:32:25.996Z,247.14
2023-05-03T06:33:26.667Z,247.11
2023-05-03T06:34:25.960Z,244.71
2023-05-03T06:35:26.670Z,245.57
2023-05-03T06:36:25.992Z,248.36
2023-05-03T06:37:26.096Z,247.78
2023-05-03T06:38:26.161Z,246.44
2023-05-03T06:39:26.211Z,250.24
2023-05-03T06:40:26.101Z,247.14
2023-05-03T06:41:26.136Z,248.91
2023-05-03T06:42:26.124Z,249.09
2023-05-03T06:43:26.142Z,249.12
2023-05-03T06:44:26.219Z,249.57
2023-05-03T06:45:26.043Z,250.19
2023-05-03T06:46:26.085Z,248.75
2023-05-03T06:47:26.123Z,247.61
2023-05-03T06:48:26.102Z,243.17
2023-05-03T06:49:25.973Z,243.70
2023-05-03T06:50:25.950Z,239.71
2023-05-03T06:51:25.917Z,241.06
2023-05-03T06:52:25.885Z,243.22
2023-05-03T06:53:25.882Z,246.28
2023-05-03T06:54:25.849Z,244.97
2023-05-03T06:55:25.828Z,246.32
2023-05-03T06:56:25.787Z,247.13
2023-05-03T06:57:27.571Z,247.26
2023-05-03T06:58:25.861Z,247.78
2023-05-03T06:59:25.773Z,249.17
2023-05-03T07:00:25.770Z,252.69
2023-05-03T07:01:25.732Z,256.15
2023-05-03T07:02:25.864Z,249.71
2023-05-03T07:03:25.758Z,249.32
2023-05-03T07:04:25.613Z,250.00
2023-05-03T07:05:25.589Z,249.57
2023-05-03T07:06:25.598Z,249.44
2023-05-03T07:07:25.591Z,249.28
2023-05-03T07:08:25.535Z,248.88
2023-05-03T07:09:41.488Z,249.21
2023-05-03T07:10:26.511Z,249.43
2023-05-03T07:11:25.426Z,250.11
2023-05-03T07:12:25.397Z,251.60
2023-05-03T07:13:25.366Z,254.22
2023-05-03T07:14:25.493Z,257.59
2023-05-03T07:15:25.310Z,249.57
2023-05-03T07:16:25.357Z,248.10
2023-05-03T07:17:26.267Z,250.00
2023-05-03T07:18:25.251Z,249.82
2023-05-03T07:19:26.183Z,248.93
2023-05-03T07:20:25.363Z,250.00
2023-05-03T07:21:25.354Z,249.74
2023-05-03T07:22:25.440Z,249.99
2023-05-03T07:23:25.359Z,250.07
2023-05-03T07:24:25.307Z,250.15
2023-05-03T07:25:25.450Z,250.48
2023-05-03T07:26:25.307Z,250.95
2023-05-03T07:27:25.219Z,251.51
2023-05-03T07:28:25.189Z,248.73
2023-05-03T07:29:25.181Z,250.00
2023-05-03T07:30:25.236Z,249.66
2023-05-03T07:31:25.422Z,245.32
2023-05-03T07:32:25.362Z,239.34
2023-05-03T07:33:25.491Z,230.23
2023-05-03T07:34:25.355Z,224.74
2023-05-03T07:35:25.403Z,224.09
2023-05-03T07:36:25.442Z,218.47
2023-05-03T07:37:25.553Z,208.31
2023-05-03T07:38:25.470Z,199.68
2023-05-03T07:39:25.502Z,192.26
2023-05-03T07:40:25.582Z,185.00
2023-05-03T07:41:25.629Z,178.41
2023-05-03T07:42:25.441Z,173.93
2023-05-03T07:43:25.417Z,170.12
2023-05-03T07:44:25.390Z,164.94
2023-05-03T07:45:25.425Z,158.55
2023-05-03T07:46:25.669Z,151.61
2023-05-03T07:47:25.353Z,146.21
2023-05-03T07:48:25.323Z,143.03
2023-05-03T07:49:25.271Z,138.01
2023-05-03T07:50:25.303Z,137.74
2023-05-03T07:51:25.216Z,133.97
2023-05-03T07:52:25.208Z,130.25
2023-05-03T07:53:25.204Z,125.26
2023-05-03T07:54:25.185Z,122.47
2023-05-03T07:55:25.196Z,120.22
2023-05-03T07:56:25.120Z,116.41
2023-05-03T07:57:25.142Z,115.79
2023-05-03T07:58:38.764Z,113.33
2023-05-03T07:59:26.076Z,113.36
2023-05-03T08:00:25.027Z,110.46
2023-05-03T08:01:25.148Z,108.33
2023-05-03T08:02:25.096Z,106.29
2023-05-03T08:03:25.124Z,104.30
2023-05-03T08:04:25.409Z,103.78
2023-05-03T08:05:25.055Z,103.14
2023-05-03T08:06:24.915Z,101.24
2023-05-03T08:07:24.861Z,98.74
2023-05-03T08:08:24.794Z,99.18
2023-05-03T08:09:24.809Z,96.63
2023-05-03T08:10:24.773Z,97.16
2023-05-03T08:11:24.734Z,97.21
2023-05-03T08:12:24.786Z,97.17
2023-05-03T08:13:24.673Z,96.09
2023-05-03T08:14:24.644Z,93.75
2023-05-03T08:15:24.630Z,93.33
2023-05-03T08:16:24.725Z,92.08
2023-05-03T08:17:24.590Z,90.47
2023-05-03T08:18:24.542Z,91.90
2023-05-03T08:19:24.566Z,90.28
2023-05-03T08:20:24.475Z,64.45
2023-05-03T08:21:24.452Z,46.28
2023-05-03T08:22:24.455Z,25.14
2023-05-03T08:23:24.411Z,25.00
2023-05-03T08:24:24.409Z,25.26
2023-05-03T08:25:24.362Z,25.61
2023-05-03T08:26:24.489Z,23.98
2023-05-03T08:27:24.354Z,25.00
2023-05-03T08:28:24.343Z,21.05
2023-05-03T08:29:25.625Z,30.02
2023-05-03T08:30:24.328Z,38.62
2023-05-03T08:31:24.322Z,40.22
2023-05-03T08:32:24.295Z,52.97
2023-05-03T08:33:24.262Z,60.12
2023-05-03T08:34:24.218Z,65.68
2023-05-03T08:35:24.193Z,70.69
2023-05-03T08:36:24.273Z,73.90
2023-05-03T08:37:24.197Z,77.20
2023-05-03T08:38:24.128Z,81.68
2023-05-03T08:39:24.097Z,85.56
2023-05-03T08:40:24.073Z,84.30
2023-05-03T08:41:24.074Z,85.84
2023-05-03T08:42:25.838Z,87.33
2023-05-03T08:43:24.008Z,87.75
2023-05-03T08:44:23.974Z,87.47
2023-05-03T08:45:23.969Z,82.82
2023-05-03T08:46:23.974Z,72.94
2023-05-03T08:47:23.909Z,56.92
2023-05-03T08:48:23.899Z,40.50
2023-05-03T08:49:23.842Z,25.60
2023-05-03T08:50:23.864Z,23.39
2023-05-03T08:51:23.825Z,23.72
2023-05-03T08:52:23.797Z,24.49
2023-05-03T08:53:23.815Z,25.24
2023-05-03T08:54:23.814Z,25.00
2023-05-03T08:55:23.793Z,23.76
2023-05-03T08:56:23.791Z,22.62
2023-05-03T08:57:23.763Z,16.10
2023-05-03T08:58:23.752Z,11.26
2023-05-03T08:59:23.794Z,6.16
2023-05-03T09:00:23.687Z,17.72
2023-05-03T09:01:23.712Z,26.60
2023-05-03T09:02:23.721Z,30.76
2023-05-03T09:03:23.893Z,33.03
2023-05-03T09:04:23.715Z,35.92
2023-05-03T09:05:23.695Z,39.23
2023-05-03T09:06:23.734Z,39.38
2023-05-03T09:07:23.696Z,40.26
2023-05-03T09:08:23.628Z,40.96
2023-05-03T09:09:23.650Z,39.25
2023-05-03T09:10:23.570Z,39.76
2023-05-03T09:11:23.797Z,41.84
2023-05-03T09:12:23.600Z,42.42
2023-05-03T09:13:23.595Z,35.00
2023-05-03T09:14:23.489Z,35.54
2023-05-03T09:15:23.472Z,37.62
2023-05-03T09:16:23.487Z,38.36
2023-05-03T09:17:23.463Z,31.88
2023-05-03T09:18:23.425Z,36.07
2023-05-03T09:19:23.448Z,40.01
2023-05-03T09:20:23.490Z,42.77
2023-05-03T09:21:23.522Z,45.32
2023-05-03T09:22:23.573Z,45.96
2023-05-03T09:23:23.622Z,41.50
2023-05-03T09:24:23.637Z,41.95
2023-05-03T09:25:23.660Z,38.19
2023-05-03T09:26:23.820Z,40.57
2023-05-03T09:27:23.799Z,43.36
2023-05-03T09:28:23.774Z,49.13
2023-05-03T09:29:23.792Z,49.97
2023-05-03T09:30:23.820Z,49.78
2023-05-03T09:31:23.976Z,49.59
2023-05-03T09:32:23.894Z,51.11
2023-05-03T09:33:23.966Z,48.85
2023-05-03T09:34:23.974Z,52.53
2023-05-03T09:35:23.972Z,50.78
2023-05-03T09:36:23.985Z,55.09
2023-05-03T09:37:24.015Z,53.55
2023-05-03T09:38:24.043Z,57.66
2023-05-03T09:39:24.183Z,56.93
2023-05-03T09:40:24.078Z,50.72
2023-05-03T09:41:24.117Z,54.74
2023-05-03T09:42:24.128Z,59.88
2023-05-03T09:43:24.162Z,69.35
2023-05-03T09:44:24.221Z,74.32
2023-05-03T09:45:24.202Z,82.06
2023-05-03T09:46:24.400Z,88.87
2023-05-03T09:47:24.258Z,93.24
2023-05-03T09:48:24.263Z,94.10
2023-05-03T09:49:24.266Z,98.99
2023-05-03T09:50:24.297Z,99.14
2023-05-03T09:51:24.250Z,100.47
2023-05-03T09:52:24.193Z,103.29
2023-05-03T09:53:24.181Z,109.73
2023-05-03T09:54:25.699Z,118.43
2023-05-03T09:55:24.118Z,124.35
2023-05-03T09:56:24.067Z,128.47
2023-05-03T09:57:24.050Z,131.73
2023-05-03T09:58:24.140Z,136.32
2023-05-03T09:59:24.044Z,138.37
2023-05-03T10:00:24.058Z,140.26
2023-05-03T10:01:24.039Z,143.74
2023-05-03T10:02:23.968Z,147.58
2023-05-03T10:03:24.012Z,152.12
2023-05-03T10:04:24.064Z,155.08
2023-05-03T10:05:23.930Z,158.27
2023-05-03T10:06:23.904Z,159.59
2023-05-03T10:07:23.828Z,161.99
2023-05-03T10:08:23.806Z,163.45
2023-05-03T10:09:23.876Z,166.79
2023-05-03T10:10:23.799Z,168.66
2023-05-03T10:11:23.716Z,171.63
2023-05-03T10:12:23.686Z,174.48
2023-05-03T10:13:23.719Z,178.37
2023-05-03T10:14:23.657Z,182.20
2023-05-03T10:15:23.657Z,186.44
2023-05-03T10:16:23.794Z,187.88
2023-05-03T10:17:29.252Z,187.98
2023-05-03T10:18:24.630Z,188.10
2023-05-03T10:19:23.556Z,188.95
2023-05-03T10:20:23.526Z,190.57
2023-05-03T10:21:23.491Z,192.81
2023-05-03T10:22:23.467Z,196.07
2023-05-03T10:23:23.478Z,198.43
2023-05-03T10:24:23.437Z,199.00
2023-05-03T10:25:23.402Z,200.47
2023-05-03T10:26:23.502Z,201.21
2023-05-03T10:27:23.399Z,201.33
2023-05-03T10:28:23.368Z,201.63
2023-05-03T10:29:23.445Z,202.65
2023-05-03T10:30:23.329Z,204.63
2023-05-03T10:31:23.368Z,206.97
2023-05-03T10:32:23.303Z,208.09
2023-05-03T10:33:23.267Z,208.88
2023-05-03T10:34:23.248Z,209.84
2023-05-03T10:35:23.275Z,211.23
2023-05-03T10:36:23.311Z,211.53
2023-05-03T10:37:23.378Z,211.17
2023-05-03T10:38:23.512Z,213.26
2023-05-03T10:39:23.431Z,213.41
2023-05-03T10:40:23.454Z,216.12
2023-05-03T10:41:23.491Z,216.93
2023-05-03T10:42:23.594Z,212.85
2023-05-03T10:43:23.586Z,212.38
2023-05-03T10:44:23.600Z,211.80
2023-05-03T10:45:23.635Z,211.46
2023-05-03T10:46:23.740Z,203.32
2023-05-03T10:47:23.773Z,196.35
2023-05-03T10:48:23.767Z,194.12
2023-05-03T10:49:23.841Z,192.46
2023-05-03T10:50:23.805Z,192.73
2023-05-03T10:51:23.810Z,187.24
2023-05-03T10:52:23.805Z,187.13
2023-05-03T10:53:23.805Z,178.50
2023-05-03T10:54:23.761Z,173.81
2023-05-03T10:55:23.717Z,167.65
2023-05-03T10:56:23.718Z,158.75
2023-05-03T10:57:23.678Z,159.40
2023-05-03T10:58:23.664Z,152.59
2023-05-03T10:59:23.629Z,144.25
2023-05-03T11:00:23.653Z,139.73
2023-05-03T11:02:42.473Z,25.00
2023-05-03T11:03:42.425Z,25.00
2023-05-03T11:04:42.426Z,25.00
2023-05-03T11:05:42.366Z,25.00
2023-05-03T11:06:42.364Z,25.00
2023-05-03T11:07:42.334Z,25.00
2023-05-03T11:08:42.371Z,29.37
2023-05-03T11:09:42.408Z,25.16
2023-05-03T11:10:42.267Z,31.30
2023-05-03T11:11:42.271Z,26.31
2023-05-03T11:12:42.233Z,25.00
2023-05-03T11:13:42.261Z,21.80
2023-05-03T11:14:42.208Z,27.93
2023-05-03T11:15:42.216Z,23.47
2023-05-03T11:16:42.275Z,27.87
2023-05-03T11:17:42.194Z,29.13
2023-05-03T11:18:42.244Z,19.06
2023-05-03T11:19:43.108Z,21.75
2023-05-03T11:20:42.120Z,8.76
2023-05-03T11:21:42.184Z,20.13
2023-05-03T11:22:42.111Z,16.48
2023-05-03T11:23:42.077Z,78.88
2023-05-03T11:24:42.048Z,131.77
2023-05-03T11:25:42.043Z,129.29
2023-05-03T11:26:42.011Z,149.82
2023-05-03T11:27:42.081Z,154.61
2023-05-03T11:28:42.023Z,160.56
2023-05-03T11:29:42.025Z,169.50
2023-05-03T11:30:41.982Z,171.93
2023-05-03T11:31:42.072Z,181.06
2023-05-03T11:32:42.015Z,187.08
2023-05-03T11:33:42.026Z,185.67
2023-05-03T11:34:41.998Z,191.83
2023-05-03T11:35:42.109Z,202.20
2023-05-03T11:36:42.051Z,201.80
2023-05-03T11:37:41.995Z,204.38
2023-05-03T11:38:41.984Z,205.38
2023-05-03T11:39:41.971Z,202.52
2023-05-03T11:40:41.975Z,206.17
2023-05-03T11:41:42.045Z,208.31
2023-05-03T11:42:42.004Z,207.26
2023-05-03T11:43:41.972Z,210.95
2023-05-03T11:44:41.991Z,213.94
2023-05-03T11:45:42.115Z,223.87
2023-05-03T11:46:42.149Z,214.01
2023-05-03T11:47:42.026Z,218.93
2023-05-03T11:48:42.049Z,227.28
2023-05-03T11:49:42.051Z,224.13
2023-05-03T11:50:42.076Z,219.93
2023-05-03T11:51:42.019Z,221.68
2023-05-03T11:52:42.029Z,224.49
2023-05-03T11:53:42.090Z,224.83
2023-05-03T11:54:42.056Z,217.70
2023-05-03T11:55:42.068Z,217.95
2023-05-03T11:56:42.035Z,219.79
2023-05-03T11:57:42.035Z,219.92
2023-05-03T11:58:42.227Z,225.56
2023-05-03T11:59:42.000Z,220.58
2023-05-03T12:00:41.962Z,221.65
2023-05-03T12:01:41.981Z,223.97
2023-05-03T12:02:42.016Z,228.42
2023-05-03T12:03:42.220Z,228.33
2023-05-03T12:04:43.197Z,212.48
2023-05-03T12:05:42.642Z,203.88
2023-05-03T12:06:43.527Z,211.94
2023-05-03T12:07:42.250Z,218.93
2023-05-03T12:08:44.488Z,217.36
2023-05-03T12:09:43.923Z,217.84
2023-05-03T12:10:43.090Z,218.13
2023-05-03T12:11:43.414Z,219.80
2023-05-03T12:12:47.182Z,222.96
2023-05-03T12:13:44.138Z,218.01
2023-05-03T12:14:42.109Z,219.95
2023-05-03T12:15:43.572Z,222.63
2023-05-03T12:16:42.068Z,225.62
2023-05-03T12:17:44.953Z,237.21
2023-05-03T12:18:42.041Z,239.19
2023-05-03T12:19:43.768Z,237.44
2023-05-03T12:21:29.574Z,233.72
2023-05-03T12:21:43.278Z,234.03
2023-05-03T12:22:44.361Z,233.97
2023-05-03T12:23:41.871Z,237.41
2023-05-03T12:24:44.589Z,235.93
2023-05-03T12:25:44.453Z,234.10
2023-05-03T12:26:42.453Z,234.29
2023-05-03T12:27:41.835Z,235.52
2023-05-03T12:28:41.796Z,234.45
2023-05-03T12:29:42.141Z,235.48
2023-05-03T12:30:41.755Z,239.54
2023-05-03T12:31:43.922Z,243.22
2023-05-03T12:32:44.216Z,234.53
2023-05-03T12:33:43.698Z,236.67
2023-05-03T12:34:41.733Z,234.43
2023-05-03T12:35:41.797Z,234.58
2023-05-03T12:36:43.826Z,236.05
2023-05-03T12:37:43.808Z,239.04
2023-05-03T12:38:43.734Z,241.05
2023-05-03T12:39:44.817Z,234.26
2023-05-03T12:40:41.675Z,234.35
2023-05-03T12:42:06.465Z,235.89
2023-05-03T12:42:43.366Z,234.35
2023-05-03T12:43:43.524Z,236.06
2023-05-03T12:44:43.143Z,238.30